createdAt,value
2018-09-24T00:01:14.391Z,1.20
2018-09-24T00:03:42.805Z,1.87
2018-09-24T00:06:11.156Z,1.10
2018-09-24T00:08:39.999Z,1.30
2018-09-24T00:11:08.375Z,1.43
2018-09-24T00:13:36.785Z,1.10
2018-09-24T00:16:05.199Z,1.17
2018-09-24T00:18:33.797Z,1.37
2018-09-24T00:21:02.185Z,1.50
2018-09-24T00:23:30.858Z,1.10
2018-09-24T00:25:59.280Z,0.97
2018-09-24T00:28:34.139Z,1.00
2018-09-24T00:31:03.749Z,1.50
2018-09-24T00:33:32.196Z,1.20
2018-09-24T00:36:00.802Z,1.10
2018-09-24T00:38:29.213Z,1.40
2018-09-24T00:40:57.516Z,0.90
2018-09-24T00:43:25.973Z,1.63
2018-09-24T00:45:54.325Z,0.73
2018-09-24T00:48:22.883Z,0.60
2018-09-24T00:50:51.342Z,0.93
2018-09-24T00:53:19.670Z,0.70
2018-09-24T00:55:47.979Z,0.63
2018-09-24T00:58:16.312Z,0.60
2018-09-24T01:00:44.632Z,0.67
2018-09-24T01:03:12.980Z,0.80
2018-09-24T01:05:41.333Z,0.47
2018-09-24T01:08:09.666Z,0.87
2018-09-24T01:10:38.121Z,0.70
2018-09-24T01:13:06.478Z,0.40
2018-09-24T01:15:34.807Z,0.80
2018-09-24T01:18:03.112Z,0.90
2018-09-24T01:20:31.418Z,0.90
2018-09-24T01:22:59.706Z,0.73
2018-09-24T01:25:28.119Z,0.77
2018-09-24T01:27:56.500Z,0.90
2018-09-24T01:30:24.900Z,1.63
2018-09-24T01:32:53.235Z,1.37
2018-09-24T01:35:21.643Z,1.33
2018-09-24T01:37:49.981Z,1.03
2018-09-24T01:40:18.426Z,1.57
2018-09-24T01:42:46.795Z,1.57
2018-09-24T01:45:15.180Z,1.10
2018-09-24T01:47:43.504Z,1.73
2018-09-24T01:50:11.845Z,1.00
2018-09-24T01:52:40.299Z,1.63
2018-09-24T01:55:08.680Z,1.23
2018-09-24T01:57:37.097Z,1.60
2018-09-24T02:00:05.576Z,1.40
2018-09-24T02:02:34.029Z,1.83
2018-09-24T02:05:02.523Z,1.87
2018-09-24T02:07:30.878Z,1.47
2018-09-24T02:09:59.187Z,1.83
2018-09-24T02:12:27.702Z,2.10
2018-09-24T02:14:56.184Z,1.60
2018-09-24T02:17:24.517Z,1.90
2018-09-24T02:19:53.303Z,1.93
2018-09-24T02:22:27.165Z,1.83
2018-09-24T02:24:56.596Z,1.80
2018-09-24T02:27:24.960Z,1.50
2018-09-24T02:29:53.455Z,1.43
2018-09-24T02:32:22.005Z,1.80
2018-09-24T02:34:52.100Z,1.70
2018-09-24T02:37:27.232Z,2.50
2018-09-24T02:39:55.726Z,1.60
2018-09-24T02:42:24.195Z,2.30
2018-09-24T02:44:56.383Z,2.07
2018-09-24T02:47:25.212Z,2.30
2018-09-24T02:49:53.611Z,1.97
2018-09-24T02:52:22.055Z,2.10
2018-09-24T02:54:50.511Z,2.43
2018-09-24T02:57:18.862Z,2.27
2018-09-24T02:59:47.283Z,1.87
2018-09-24T03:02:15.724Z,2.63
2018-09-24T03:04:44.115Z,1.97
2018-09-24T03:07:12.490Z,2.00
2018-09-24T03:09:40.884Z,2.10
2018-09-24T03:12:09.235Z,1.57
2018-09-24T03:14:37.582Z,1.80
2018-09-24T03:17:06.038Z,2.50
2018-09-24T03:19:34.454Z,1.97
2018-09-24T03:22:02.808Z,2.10
2018-09-24T03:24:31.165Z,2.30
2018-09-24T03:26:59.523Z,2.37
2018-09-24T03:29:27.910Z,2.20
2018-09-24T03:31:56.370Z,2.50
2018-09-24T03:34:24.832Z,2.30
2018-09-24T03:36:53.288Z,2.27
2018-09-24T03:39:21.772Z,2.43
2018-09-24T03:41:50.174Z,2.27
2018-09-24T03:44:18.545Z,2.10
2018-09-24T03:46:46.902Z,2.30
2018-09-24T03:49:15.264Z,2.50
2018-09-24T03:51:43.759Z,2.37
2018-09-24T03:54:12.139Z,2.20
2018-09-24T03:56:40.713Z,2.37
2018-09-24T03:59:09.113Z,2.10
2018-09-24T04:01:37.530Z,2.33
2018-09-24T04:04:11.135Z,2.40
2018-09-24T04:06:44.869Z,1.93
2018-09-24T04:09:18.561Z,2.77
2018-09-24T04:11:52.245Z,3.00
2018-09-24T04:14:25.995Z,2.30
2018-09-24T04:16:59.636Z,2.13
2018-09-24T04:19:33.483Z,2.33
2018-09-24T04:22:06.918Z,2.23
2018-09-24T04:24:40.743Z,2.77
2018-09-24T04:27:14.399Z,2.20
2018-09-24T04:29:48.091Z,2.33
2018-09-24T04:32:21.745Z,2.33
2018-09-24T04:34:55.508Z,2.47
2018-09-24T04:37:29.084Z,2.50
2018-09-24T04:40:02.889Z,3.00
2018-09-24T04:42:36.609Z,2.97
2018-09-24T04:45:10.289Z,2.90
2018-09-24T04:47:43.864Z,2.30
2018-09-24T04:50:17.559Z,2.20
2018-09-24T04:52:51.184Z,2.20
2018-09-24T04:55:25.097Z,1.70
2018-09-24T04:57:58.870Z,2.80
2018-09-24T05:00:32.505Z,2.80
2018-09-24T05:03:06.159Z,2.00
2018-09-24T05:05:39.937Z,2.20
2018-09-24T05:08:13.492Z,2.20
2018-09-24T05:10:47.024Z,1.93
2018-09-24T05:13:20.688Z,2.00
2018-09-24T05:16:01.147Z,1.87
2018-09-24T05:18:35.030Z,1.80
2018-09-24T05:21:08.635Z,1.90
2018-09-24T05:23:42.282Z,1.97
2018-09-24T05:26:15.914Z,1.93
2018-09-24T05:28:49.703Z,2.50
2018-09-24T05:31:23.591Z,1.40
2018-09-24T05:33:57.352Z,3.23
2018-09-24T05:36:31.216Z,2.50
2018-09-24T05:39:04.855Z,2.33
2018-09-24T05:41:38.551Z,2.53
2018-09-24T05:44:12.289Z,1.77
2018-09-24T05:46:46.165Z,1.37
2018-09-24T05:49:19.756Z,2.23
2018-09-24T05:51:53.508Z,1.80
2018-09-24T05:54:27.227Z,1.80
2018-09-24T05:57:00.991Z,3.40
2018-09-24T05:59:34.607Z,2.17
2018-09-24T06:02:08.134Z,1.30
2018-09-24T06:04:42.150Z,2.07
2018-09-24T06:07:15.760Z,1.93
2018-09-24T06:09:49.508Z,1.70
2018-09-24T06:12:23.230Z,1.73
2018-09-24T06:14:56.829Z,1.70
2018-09-24T06:17:30.627Z,1.80
2018-09-24T06:20:04.186Z,1.90
2018-09-24T06:22:37.861Z,1.70
2018-09-24T06:25:11.593Z,1.50
2018-09-24T06:27:45.060Z,1.30
2018-09-24T06:30:18.739Z,1.27
2018-09-24T06:32:52.496Z,1.33
2018-09-24T06:35:26.113Z,1.50
2018-09-24T06:37:59.876Z,1.17
2018-09-24T06:40:33.645Z,1.07
2018-09-24T06:43:07.179Z,1.40
2018-09-24T06:45:40.950Z,1.60
2018-09-24T06:48:14.708Z,1.40
2018-09-24T06:50:48.366Z,1.70
2018-09-24T06:53:22.102Z,1.50
2018-09-24T06:55:55.841Z,1.20
2018-09-24T06:58:29.787Z,1.73
2018-09-24T07:01:03.472Z,1.20
2018-09-24T07:03:37.083Z,1.07
2018-09-24T07:06:10.699Z,1.00
2018-09-24T07:08:44.530Z,0.87
2018-09-24T07:11:18.204Z,1.20
2018-09-24T07:13:51.950Z,1.33
2018-09-24T07:16:25.407Z,1.10
2018-09-24T07:18:59.092Z,1.10
2018-09-24T07:21:32.795Z,1.53
2018-09-24T07:24:06.571Z,1.43
2018-09-24T07:26:40.348Z,1.50
2018-09-24T07:29:13.921Z,1.50
2018-09-24T07:31:47.593Z,1.70
2018-09-24T07:34:21.325Z,1.27
2018-09-24T07:36:55.030Z,1.30
2018-09-24T07:39:29.036Z,1.70
2018-09-24T07:42:02.812Z,1.40
2018-09-24T07:44:36.510Z,1.37
2018-09-24T07:47:10.425Z,1.77
2018-09-24T07:49:44.313Z,1.50
2018-09-24T07:52:17.880Z,2.13
2018-09-24T07:54:51.540Z,1.80
2018-09-24T07:57:25.324Z,1.43
2018-09-24T07:59:59.014Z,1.80
2018-09-24T08:02:32.749Z,1.77
2018-09-24T08:05:06.548Z,1.70
2018-09-24T08:07:40.157Z,1.73
2018-09-24T08:10:13.866Z,1.47
2018-09-24T08:12:47.789Z,2.03
2018-09-24T08:15:21.812Z,1.60
2018-09-24T08:17:55.510Z,1.87
2018-09-24T08:20:29.313Z,2.40
2018-09-24T08:23:02.941Z,2.30
2018-09-24T08:25:36.736Z,2.37
2018-09-24T08:28:10.581Z,2.10
2018-09-24T08:30:44.391Z,1.97
2018-09-24T08:33:18.051Z,2.00
2018-09-24T08:35:51.732Z,2.27
2018-09-24T08:38:25.377Z,1.63
2018-09-24T08:40:59.156Z,1.80
2018-09-24T08:43:32.721Z,1.80
2018-09-24T08:46:06.402Z,1.43
2018-09-24T08:48:40.284Z,1.20
2018-09-24T08:51:14.012Z,1.93
2018-09-24T08:53:47.794Z,6.33
2018-09-24T08:56:21.505Z,2.07
2018-09-24T08:58:55.122Z,1.63
2018-09-24T09:01:29.041Z,1.53
2018-09-24T09:04:02.650Z,0.93
2018-09-24T09:06:36.138Z,1.40
2018-09-24T09:09:12.045Z,1.30
2018-09-24T09:11:46.137Z,1.70
2018-09-24T09:14:19.715Z,1.40
2018-09-24T09:16:53.277Z,1.70
2018-09-24T09:19:26.890Z,1.50
2018-09-24T09:22:01.388Z,1.20
2018-09-24T09:24:35.001Z,1.60
2018-09-24T09:27:08.646Z,1.30
2018-09-24T09:29:42.437Z,1.73
2018-09-24T09:32:16.117Z,1.80
2018-09-24T09:34:49.754Z,1.70
2018-09-24T09:37:23.549Z,1.70
2018-09-24T09:39:57.591Z,1.83
2018-09-24T09:42:31.580Z,1.70
2018-09-24T09:45:05.362Z,1.93
2018-09-24T09:47:39.195Z,1.60
2018-09-24T09:50:12.874Z,3.37
2018-09-24T09:52:46.603Z,2.17
2018-09-24T09:55:20.368Z,1.90
2018-09-24T09:57:54.107Z,2.17
2018-09-24T10:00:27.681Z,1.67
2018-09-24T10:03:01.481Z,1.30
2018-09-24T10:05:35.124Z,1.20
2018-09-24T10:08:08.997Z,1.83
2018-09-24T10:10:42.755Z,1.13
2018-09-24T10:13:16.519Z,1.30
2018-09-24T10:15:50.222Z,1.33
2018-09-24T10:18:23.974Z,1.70
2018-09-24T10:20:57.751Z,1.37
2018-09-24T10:23:31.579Z,1.83
2018-09-24T10:26:05.172Z,1.70
2018-09-24T10:28:38.982Z,1.53
2018-09-24T10:31:12.633Z,0.83
2018-09-24T10:33:46.198Z,1.27
2018-09-24T10:36:19.830Z,1.37
2018-09-24T10:38:54.130Z,2.00
2018-09-24T10:41:27.921Z,1.40
2018-09-24T10:44:01.677Z,1.20
2018-09-24T10:46:35.330Z,2.57
2018-09-24T10:49:08.829Z,2.60
2018-09-24T10:51:42.329Z,2.13
2018-09-24T10:54:16.079Z,1.50
2018-09-24T10:56:49.914Z,2.10
2018-09-24T10:59:23.798Z,4.20
2018-09-24T11:01:57.571Z,2.10
2018-09-24T11:04:31.320Z,2.93
2018-09-24T11:07:04.988Z,1.60
2018-09-24T11:09:38.897Z,1.50
2018-09-24T11:12:12.818Z,1.70
2018-09-24T11:14:46.496Z,1.87
2018-09-24T11:17:20.286Z,1.67
2018-09-24T11:20:00.772Z,3.10
2018-09-24T11:22:34.645Z,2.10
2018-09-24T11:25:08.287Z,1.53
2018-09-24T11:27:41.999Z,1.60
2018-09-24T11:30:16.144Z,1.30
2018-09-24T11:32:49.891Z,1.40
2018-09-24T11:35:23.557Z,1.60
2018-09-24T11:37:57.483Z,1.23
2018-09-24T11:40:31.224Z,1.00
2018-09-24T11:43:05.082Z,1.70
2018-09-24T11:45:38.904Z,1.80
2018-09-24T11:48:12.847Z,2.43
2018-09-24T11:50:46.615Z,1.50
2018-09-24T11:53:20.426Z,1.47
2018-09-24T11:55:54.141Z,1.80
2018-09-24T11:58:27.939Z,1.97
2018-09-24T12:01:01.843Z,1.27
2018-09-24T12:03:35.753Z,1.60
2018-09-24T12:06:09.500Z,1.80
2018-09-24T12:08:43.174Z,1.73
2018-09-24T12:11:17.028Z,1.80
2018-09-24T12:13:50.607Z,1.63
2018-09-24T12:16:24.623Z,1.03
2018-09-24T12:18:58.221Z,0.73
2018-09-24T12:21:31.982Z,1.20
2018-09-24T12:24:05.825Z,1.30
2018-09-24T12:26:39.510Z,1.20
2018-09-24T12:29:13.247Z,1.10
2018-09-24T12:31:47.031Z,1.50
2018-09-24T12:34:20.761Z,1.17
2018-09-24T12:36:54.617Z,1.37
2018-09-24T12:39:28.147Z,1.43
2018-09-24T12:42:01.877Z,1.00
2018-09-24T12:44:35.469Z,2.20
2018-09-24T12:47:09.672Z,1.20
2018-09-24T12:49:43.290Z,1.50
2018-09-24T12:52:17.100Z,1.23
2018-09-24T12:54:51.077Z,0.80
2018-09-24T12:57:24.883Z,1.27
2018-09-24T12:59:58.591Z,0.90
2018-09-24T13:02:32.405Z,1.00
2018-09-24T13:05:06.024Z,0.70
2018-09-24T13:07:39.800Z,0.77
2018-09-24T13:10:16.283Z,2.27
2018-09-24T13:12:49.820Z,1.00
2018-09-24T13:15:23.680Z,0.80
2018-09-24T13:17:57.436Z,1.23
2018-09-24T13:20:31.102Z,1.13
2018-09-24T13:23:04.696Z,1.20
2018-09-24T13:25:38.473Z,0.63
2018-09-24T13:28:12.257Z,1.13
2018-09-24T13:30:46.104Z,1.30
2018-09-24T13:33:19.913Z,1.00
2018-09-24T13:35:53.461Z,1.20
2018-09-24T13:38:28.550Z,1.00
2018-09-24T13:41:02.007Z,1.00
2018-09-24T13:43:35.986Z,1.10
2018-09-24T13:46:09.869Z,1.00
2018-09-24T13:48:43.941Z,1.17
2018-09-24T13:51:17.706Z,1.07
2018-09-24T13:53:51.730Z,0.63
2018-09-24T13:56:25.673Z,0.80
2018-09-24T13:58:59.796Z,1.33
2018-09-24T14:01:33.870Z,1.10
2018-09-24T14:04:07.593Z,0.80
2018-09-24T14:06:41.394Z,1.73
2018-09-24T14:09:15.208Z,0.70
2018-09-24T14:11:48.925Z,2.17
2018-09-24T14:14:22.743Z,1.07
2018-09-24T14:16:56.577Z,1.07
2018-09-24T14:19:30.257Z,0.97
2018-09-24T14:22:04.054Z,1.03
2018-09-24T14:24:37.721Z,0.80
2018-09-24T14:27:11.311Z,0.80
2018-09-24T14:29:44.862Z,0.93
2018-09-24T14:32:18.415Z,0.73
2018-09-24T14:34:52.079Z,0.90
2018-09-24T14:37:25.837Z,0.80
2018-09-24T14:39:59.452Z,1.33
2018-09-24T14:42:32.910Z,0.90
2018-09-24T14:45:06.590Z,0.80
2018-09-24T14:47:40.282Z,0.90
2018-09-24T14:50:14.136Z,1.00
2018-09-24T14:52:48.007Z,0.80
2018-09-24T14:55:21.956Z,0.77
2018-09-24T14:57:55.636Z,1.00
2018-09-24T15:00:29.485Z,1.10
2018-09-24T15:03:03.244Z,1.27
2018-09-24T15:05:36.853Z,1.00
2018-09-24T15:08:10.464Z,1.43
2018-09-24T15:10:43.942Z,1.40
2018-09-24T15:13:17.818Z,1.00
2018-09-24T15:15:51.515Z,1.43
2018-09-24T15:18:25.625Z,0.60
2018-09-24T15:20:59.811Z,0.67
2018-09-24T15:23:33.964Z,1.20
2018-09-24T15:26:08.072Z,1.00
2018-09-24T15:28:42.351Z,0.57
2018-09-24T15:31:16.364Z,1.17
2018-09-24T15:33:50.513Z,1.03
2018-09-24T15:36:25.219Z,1.07
2018-09-24T15:38:59.553Z,1.00
2018-09-24T15:41:33.579Z,0.90
2018-09-24T15:44:07.566Z,1.20
2018-09-24T15:46:42.159Z,1.07
2018-09-24T15:49:16.523Z,1.00
2018-09-24T15:51:50.390Z,1.20
2018-09-24T15:54:24.119Z,1.33
2018-09-24T15:56:57.771Z,1.33
2018-09-24T15:59:31.376Z,1.97
2018-09-24T16:02:05.243Z,2.17
2018-09-24T16:04:39.024Z,2.37
2018-09-24T16:07:12.747Z,2.40
2018-09-24T16:09:46.344Z,1.57
2018-09-24T16:12:21.244Z,2.57
2018-09-24T16:14:55.182Z,2.63
2018-09-24T16:17:28.843Z,1.70
2018-09-24T16:22:41.820Z,2.80
2018-09-24T16:25:15.556Z,1.80
2018-09-24T16:27:49.528Z,2.73
2018-09-24T16:30:23.528Z,2.10
2018-09-24T16:32:57.386Z,3.43
2018-09-24T16:35:31.091Z,3.40
2018-09-24T16:38:04.947Z,4.27
2018-09-24T16:40:38.789Z,3.27
2018-09-24T16:43:12.549Z,3.63
2018-09-24T16:45:46.585Z,6.70
2018-09-24T16:48:27.283Z,6.30
2018-09-24T16:51:00.846Z,4.27
2018-09-24T16:53:34.681Z,2.90
2018-09-24T16:56:09.314Z,4.07
2018-09-24T16:58:43.021Z,3.17
2018-09-24T17:01:17.194Z,2.90
2018-09-24T17:03:50.880Z,1.97
2018-09-24T17:06:24.884Z,2.10
2018-09-24T17:08:58.709Z,1.97
2018-09-24T17:11:32.691Z,2.43
2018-09-24T17:14:06.714Z,2.33
2018-09-24T17:16:40.573Z,2.23
2018-09-24T17:19:14.337Z,2.20
2018-09-24T17:21:48.258Z,1.67
2018-09-24T17:24:22.651Z,2.63
2018-09-24T17:27:00.113Z,2.40
2018-09-24T17:29:34.387Z,2.07
2018-09-24T17:32:08.848Z,3.13
2018-09-24T17:34:43.260Z,3.10
2018-09-24T17:37:17.169Z,2.90
2018-09-24T17:39:51.094Z,2.40
2018-09-24T17:42:25.026Z,2.70
2018-09-24T17:44:59.041Z,2.30
2018-09-24T17:47:33.107Z,3.20
2018-09-24T17:50:07.114Z,3.47
2018-09-24T17:52:41.096Z,2.80
2018-09-24T17:55:15.229Z,2.80
2018-09-24T17:57:49.748Z,2.33
2018-09-24T18:00:24.492Z,3.17
2018-09-24T18:02:58.543Z,2.30
2018-09-24T18:05:33.112Z,2.30
2018-09-24T18:08:07.360Z,2.10
2018-09-24T18:10:41.686Z,2.03
2018-09-24T18:13:15.628Z,2.10
2018-09-24T18:15:49.595Z,2.30
2018-09-24T18:18:23.501Z,2.30
2018-09-24T18:20:57.498Z,2.60
2018-09-24T18:23:31.483Z,4.43
2018-09-24T18:26:05.659Z,5.13
2018-09-24T18:28:40.149Z,3.17
2018-09-24T18:31:14.819Z,3.87
2018-09-24T18:33:48.653Z,3.63
2018-09-24T18:36:22.837Z,2.90
2018-09-24T18:38:56.792Z,2.53
2018-09-24T18:41:30.783Z,2.60
2018-09-24T18:44:04.985Z,2.20
2018-09-24T18:46:38.920Z,2.20
2018-09-24T18:49:13.109Z,1.53
2018-09-24T18:51:47.336Z,1.97
2018-09-24T18:54:21.431Z,2.80
2018-09-24T18:56:55.681Z,2.77
2018-09-24T18:59:29.784Z,2.07
2018-09-24T19:02:04.109Z,2.37
2018-09-24T19:04:38.546Z,3.50
2018-09-24T19:07:12.612Z,3.20
2018-09-24T19:09:46.867Z,2.60
2018-09-24T19:12:21.129Z,1.70
2018-09-24T19:14:55.530Z,1.50
2018-09-24T19:17:29.331Z,1.70
2018-09-24T19:20:03.796Z,1.60
2018-09-24T19:22:38.065Z,1.50
2018-09-24T19:25:12.198Z,1.40
2018-09-24T19:27:47.251Z,1.53
2018-09-24T19:30:21.389Z,1.60
2018-09-24T19:32:55.533Z,2.20
2018-09-24T19:35:29.938Z,1.70
2018-09-24T19:38:04.172Z,2.43
2018-09-24T19:40:38.889Z,1.60
2018-09-24T19:43:13.121Z,1.90
2018-09-24T19:45:47.482Z,1.70
2018-09-24T19:48:21.670Z,2.03
2018-09-24T19:50:56.109Z,1.70
2018-09-24T19:53:30.324Z,1.13
2018-09-24T19:56:04.500Z,1.40
2018-09-24T19:58:38.693Z,1.60
2018-09-24T20:01:12.886Z,2.10
2018-09-24T20:03:46.955Z,1.70
2018-09-24T20:06:21.214Z,1.43
2018-09-24T20:08:55.559Z,1.97
2018-09-24T20:11:29.604Z,1.90
2018-09-24T20:14:04.391Z,1.87
2018-09-24T20:16:39.005Z,1.60
2018-09-24T20:19:13.062Z,1.30
2018-09-24T20:21:47.114Z,1.50
2018-09-24T20:24:21.250Z,1.80
2018-09-24T20:26:55.347Z,1.73
2018-09-24T20:29:29.874Z,1.77
2018-09-24T20:32:03.674Z,1.67
2018-09-24T20:34:38.206Z,1.53
2018-09-24T20:37:12.906Z,2.20
2018-09-24T20:39:47.098Z,1.60
2018-09-24T20:42:21.341Z,1.67
2018-09-24T20:44:55.698Z,1.93
2018-09-24T20:47:29.757Z,1.40
2018-09-24T20:50:03.951Z,1.37
2018-09-24T20:52:37.700Z,1.80
2018-09-24T20:55:11.625Z,1.53
2018-09-24T20:57:45.554Z,1.77
2018-09-24T21:00:19.239Z,1.93
2018-09-24T21:02:53.890Z,1.27
2018-09-24T21:05:28.792Z,2.13
2018-09-24T21:08:03.005Z,1.77
2018-09-24T21:10:37.029Z,2.10
2018-09-24T21:13:11.020Z,1.63
2018-09-24T21:15:45.535Z,2.17
2018-09-24T21:18:20.044Z,2.20
2018-09-24T21:20:53.940Z,1.50
2018-09-24T21:23:27.792Z,2.07
2018-09-24T21:26:01.894Z,2.00
2018-09-24T21:28:36.512Z,2.00
2018-09-24T21:31:10.846Z,1.50
2018-09-24T21:33:44.434Z,1.93
2018-09-24T21:36:19.107Z,1.43
2018-09-24T21:38:52.753Z,1.80
2018-09-24T21:41:26.829Z,1.70
2018-09-24T21:44:00.717Z,2.00
2018-09-24T21:46:34.550Z,1.57
2018-09-24T21:49:08.516Z,1.50
2018-09-24T21:51:42.512Z,1.77
2018-09-24T21:54:16.565Z,1.77
2018-09-24T21:56:50.518Z,2.13
2018-09-24T21:59:24.303Z,1.97
2018-09-24T22:01:58.090Z,1.73
2018-09-24T22:04:31.780Z,2.07
2018-09-24T22:07:05.410Z,1.90
2018-09-24T22:09:39.111Z,2.00
2018-09-24T22:12:12.789Z,2.20
2018-09-24T22:14:46.496Z,1.63
2018-09-24T22:17:20.343Z,1.60
2018-09-24T22:19:54.155Z,2.40
2018-09-24T22:22:28.383Z,2.57
2018-09-24T22:25:02.333Z,1.90
2018-09-24T22:27:36.134Z,1.93
2018-09-24T22:30:10.191Z,1.87
2018-09-24T22:32:43.773Z,1.30
2018-09-24T22:35:17.491Z,1.70
2018-09-24T22:37:51.130Z,1.83
2018-09-24T22:40:24.727Z,1.80
2018-09-24T22:42:58.729Z,1.87
2018-09-24T22:45:32.342Z,1.53
2018-09-24T22:48:06.147Z,1.70
2018-09-24T22:50:39.779Z,1.50
2018-09-24T22:53:13.499Z,2.00
2018-09-24T22:55:47.002Z,1.97
2018-09-24T22:58:20.678Z,1.53
2018-09-24T23:00:54.318Z,1.77
2018-09-24T23:03:28.229Z,2.13
2018-09-24T23:06:01.869Z,1.67
2018-09-24T23:08:35.523Z,1.90
2018-09-24T23:11:09.188Z,1.60
2018-09-24T23:13:42.798Z,1.83
2018-09-24T23:16:16.601Z,1.60
2018-09-24T23:18:50.439Z,2.00
2018-09-24T23:21:24.248Z,2.20
2018-09-24T23:23:58.007Z,2.83
2018-09-24T23:26:31.656Z,1.83
2018-09-24T23:29:05.398Z,2.83
2018-09-24T23:31:39.093Z,2.03
2018-09-24T23:34:12.927Z,2.20
2018-09-24T23:36:46.658Z,1.90
2018-09-24T23:39:20.420Z,1.70
2018-09-24T23:41:54.102Z,1.73
2018-09-24T23:44:27.958Z,1.73
2018-09-24T23:47:01.747Z,1.60
2018-09-24T23:49:35.293Z,1.40
2018-09-24T23:52:08.976Z,2.07
2018-09-24T23:54:42.602Z,1.53
2018-09-24T23:57:16.164Z,1.80
2018-09-24T23:59:49.877Z,2.03
